Timeline UpdatesTrip UpdatesNews PostsPvt PostsTravel TipsAdmin PostsConv PostsFollowed PostsChat RequestsBlog PostsPNR Posts

Disclaimer
Search
 
 
Thu Jul 24, 2014 03:41:58 ISTHomeTrainsΣChainsAtlasPNRForumGalleryNewsFAQTripsMembersLoginFeedback
No Recent News for this Train
Other Trains in the News **new
Latest...
11092 / 11091 Pune – Bhuj Express will be augmented from 31.3.2014 Ex Pune and from 2.4.2014 Ex Bhuj.
Fri Mar 28, 2014 (04:43PM)
⇐ Return Journey: Train# 11091

11092/Pune - Bhuj Ahimsa Express

Oct 14 2013 (11:33PM)
Change Departure Station:
Change Arrival Station:
Post a Train Travel TipPost a Train Travel Tip **new
Post a Comment/Question/Picture/VideoPost a Comment/Question/Picture/Video
Pantry/Catering
✕ NO Pantry Car
✓ Catering Avbl
Loco/Rake Reversals
GIMB/Gandhidham Junction (3);
RSA - Rake Sharing
12103/04 Lucknow Exp.
Rake/Coach Composition
AC1-1, 2A-1; 3A-2; SL-10; SLR-2; GEN-2; No Pantry; H1 permanently added as per http://indiarailinfo.com/news/post/indian-railways-news/89711
Loco
PUNE-ADI: KYN WCAM-2P / BRC WAG-5P ADI-BHUJ: VTA WDM-3A/3D
News    PNR    Forum    Time-Table    Availability    Fare Chart    Map    Arr/Dep History    Trips    Gallery    ΣChains    X/O    Timeline    
Travel Time: 19h 30m    22 halts    Distance: 989 km    Avg Speed: 50 km/hr
Type: Mail/Express
Zone: CR/Central
Departs @ 19:50 (Avg on time)
Platform# 5
 M     
Pune Junction/PUNE 
Arrives @ 15:20 +1 night (Avg on time)
Platform# 1
  T    
Bhuj/BHUJ 

22 halts. 169 intermediate Stations between Pune Junction and Bhuj

Hide intermediate Stations  Show Old Time-Table

#CodeStation NameX/OArrivesAvgDepartsAvgHaltPFDay#KmSpeedElevZoneAddress
1PUNE»Pune Junction (6)»  -19:50+0510.071556mCRPune 411001, Maharashtra
1.1SVJRShivajinagar (2)  19:52-19:52-  12.4 71549mCRPune 411005, Maharashtra
1.2KKKhadki (3)  19:55-19:55-  16.0 71562mCRPune 411003, Maharashtra
1.3DAPDDapodi (2)X  19:57-19:57-  18.1 71558mCRPune 411012, Maharashtra
1.4KSWDKasarwadi (2)X  20:00-20:00-  111.5 71558mCRPune 411034, Maharashtra
1.5PMPPimpri (2)  20:02-20:02-  114.1 71570mCRPune 411018, Maharashtra
1.6CCHChinchwad (4)  20:04-20:04-  116.3 71573mCRPune 411033, Maharashtra
1.7AKRDAkurdi (2)  20:07-20:07-  119.5 71583mCRPune 411035, Maharashtra
1.8DEHRDehu Road (4)X  20:11-20:11-  124.5 71611mCRDehu 412101, Maharashtra
1.9BGWBegdewadi (2)  20:14-20:14-  128.0 71594mCRBegdewadi, Maharashtra
1.10BGWIBegdaewadi  20:14-20:14-  128.1 71594mCRTalegaon, Maharashtra
1.11SLRWShelarwadi (2)  20:14-20:14-  128.3 71594mCRShelarwadi Dist. Pune, Maharashtra
1.12GRWDGhorawadi (2)  20:16-20:16-  131.1 71596mCRGhorawadi, Maharashtra
1.13TGNTalegaon (2)  20:19-20:19-  134.1 71619mCRTalegaon Dabhade 410501, Maharashtra
1.14VDNVadgaon (2)  20:22-20:22-  138.1 71623mCRVadgaon, Maharashtra
1.15KNHEKanhe (2)  20:27-20:27-  143.2 71626mCRKanhe, Maharashtra
1.16KMSTKamshet (2)X  20:31-20:31-  147.8 71607mCRDist. Pune 410405, Maharashtra
1.17MVLMalavli (2)  20:38-20:38-  156.5 71616mCRMalavli 410405, Maharashtra
2LNLLonavala (3)  20:44+520:45+61m2163.640623mCRLonavala 410401, Maharashtra
2.1KADKhandala (3)  20:51-20:51-  167.4 40545mCRKhandala 410301, Maharashtra
2.2MHLCMonkey Hill (2)X  20:58-20:58-  172.6 40414mCRKhandala, Maharashtra
2.3NAGCNagargali  21:04-21:04-  176.4 40354mCRKhopoli, Maharashtra
2.4NNCNNagnath Cabin (1)  21:09-21:09-  179.5 40289mCRDolavali Khopoli (Chinchavali Marge), Maharashtra
2.5TKWThakurvadi  21:09-21:09-  179.9 40281mCRKhandala, Maharashtra
2.6PDIPalasdhari (4)  21:24-21:24-  189.4 4067mCRDist Raigad, Maharashtra
3KJTKarjat Junction (4)  21:28+1421:30+142m2192.35657mCRKarjat, Maharashtra
3.1BVSBhivpuri Road (2)  21:37-21:37-  199.2 5650mCRBhivpuri Road, Maharashtra
3.2NRLNeral Junction (2)  21:45-21:45-  1105.9 5642mCRNeral-410101 Dist. Raigad, Maharashtra
3.3SHLUShelu (2)X  21:49-21:49-  1110.0 5640mCRShelu, Maharashtra
3.4VGIVangani (2)  21:53-21:53-  1114.0 5642mCRVangani, Maharashtra
3.5BUDBadlapur (3)X  22:05-22:05-  1124.8 5618mCRBadlapur-421 503, Maharashtra
3.6ABHAmbernath (3)X  22:13-22:13-  1132.4 5623mCRMaharashtra 421502, Maharashtra
3.7ULNRUlhasnagar (2)  22:15-22:15-  1134.9 5614mCRUlhasnagar Camp No.3, Maharashtra
3.8VLDIVithalwadi (2)X  22:17-22:17-  1136.8 5613mCRVitthalwadi, Maharashtra
4KYNKalyan Junction (8)X  22:20+422:25+35m71139.14710mCRKalyan 421301, Maharashtra
4.1THKThakurli (2)  22:30-22:30-  1142.7 4714mCRThakurli, Maharashtra
4.2DIDombivli (5)  22:31-22:31-  1144.2 4711mCRDombivli, Maharashtra
4.3DCTLDombivli Ctl  22:36-22:36-  1147.9 472mCRDombivli, Maharashtra
4.4KOPRKopar (4)  22:38-22:38-  1149.2 470mCRKopar, Maharashtra
5BIRDBhiwandi Road (4)  22:48+922:50+102m--1157.13026mCRBhiwandi, Maharashtra
5.1KHBVKharbav (4)  23:06-23:06-  1165.3 308mCRThane, Maharashtra
5.2KARDKaman Road  23:23-23:23-  1173.5 3019mCRSection 2, Maharashtra
5.3JCNRJuchandraX  23:34-23:34-  1179.1 304mCRNH 8, Maharashtra
6BSRVasai Road (7)  23:45+223:50+75m--1184.4647mWRThane-401202, Maharashtra
6.1NSPNallasopara (4)  23:54-23:54-  1188.6 645mWRNallasopara station Rd, Maharashtra
6.2VRVirar (8)  23:58-23:58-  1192.8 646mWRThane, Maharashtra
6.3VTNVaitarna (2)  00:06-00:06-  2201.3 643mWRThane, Maharashtra
6.4SAHSaphale (2)  00:13-00:13-  2209.1 648mWRThane, Maharashtra
6.5KLVKelve Road (3)  00:19-00:19-  2215.6 6410mWRThane, Maharashtra
6.6PLGPalghar (3)  00:27-00:27-  2224.0 6419mWRPalghar, Maharashtra
6.7UOIUmroli (2)  00:33-00:33-  2230.4 648mWRBoisar, Maharashtra
6.8BORBoisar (3)  00:38-00:38-  2235.2 6417mWRBoisar Tel.no-02525-266626, Maharashtra
6.9VGNVangaon (3)  00:47-00:47-  2244.6 6411mWRThane, Maharashtra
6.10DRDDahanu Road (5)XO  00:58-00:58-  2257.0 6412mWRDahanu, Maharashtra
6.11GVDGholvad (4)X  01:09-01:09-  2268.1 6414mWRGholvad, Maharashtra
6.12BRRDBordi Road (2)  01:13-01:13-  2273.0 6417mWRBordi, Maharashtra
6.13UBRUmbargam Road (3)X  01:17-01:17-  2277.3 6430mWRUmbergaon, Gujarat
6.14SJNSanjan (3)  01:22-01:22-  2282.6 6422mWRSanjan, Gujarat
6.15BLDBhilad (3)O  01:33-01:33-  2294.2 6433mWRBhilad, Gujarat
6.16KEBKarambeli (2)X  01:38-01:38-  2299.0 6429mWRNational Highway 8, Gujarat
7VAPIVapi (3)X  01:44+1201:46+122m12305.56327mWRVapi, Gujarat
7.1BAGDBagwada (2)X  01:52-01:52-  2312.2 6322mWRNH8, Gujarat
7.2UVDUdvada (3)  01:55-01:55-  2315.1 6318mWRUdvada, Gujarat
7.3PADPardi (3)X  02:01-02:01-  2321.0 6319mWRValsad, Gujarat
7.4ATULAtul (3)  02:05-02:05-  2325.0 6322mWRValsad, Gujarat
8BLValsad (3)X  02:11+2002:13+272m22331.74815mWRValsad, Gujarat
8.1DGIDungri (3)  02:24-02:24-  2340.6 4820mWRNH 8, Gujarat
8.2JRSJoravasan (2)X  02:31-02:31-  2345.7 4815mWRJoravasan, Gujarat
8.3BIMBilimora Junction (4)  02:35-02:35-  2349.6 4811mWRBilimora, Gujarat
8.4AMLAmalsad (3)X  02:42-02:42-  2355.2 4812mWRAmalsad, Gujarat
8.5ACLAncheli (2)  02:47-02:47-  2359.0 4820mWRNavsari, Gujarat
8.6VDHVedchha (3)X  02:51-02:51-  2362.4 4813mWRNavsari, Gujarat
8.7HXRHansapore (2)  02:56-02:56-  2366.2 4815mWRHansapore, Gujarat
8.8GNSTGandhi Smriti (2)X  02:58-02:58-  2367.8 4816mWRGandhi Smriti Navsari, Gujarat
9NVSNavsari (3)XO  03:02+803:04+102m--2370.83914mWRNavsari, Gujarat
9.1MRLMaroli (3)X  03:17-03:17-  2379.3 3915mWRMaroli, Gujarat
9.2SCHSachin (3)  03:27-03:27-  2385.9 3911mWRKansad Road Sachin, Gujarat
9.3BHETBhestan (2)X  03:36-03:36-  2391.6 3913mWRSurat, Gujarat
9.4UDNUdhna Junction (3)  03:44-03:44-  2396.4 3916mWRUdhna 394210, Gujarat
10STSurat (4)X  03:50+003:55+05m12400.47319mWRSurat 395001, Gujarat
10.1URNUtran (3)  03:58-03:58-  2404.3 7315mWRSurat, Gujarat
10.2KSEKosad (2)  04:01-04:01-  2407.5 7317mWRSurat, Gujarat
10.3GTXGothangam (2)  04:04-04:04-  2411.1 7319mWRAmroli Sayan Rd, Gujarat
10.4SYNSayan (3)  04:06-04:06-  2414.1 7321mWRSayan Satellite town, Gujarat
10.5KDSDKudsad (2)  04:12-04:12-  2421.2 7318mWRNH 8, Gujarat
10.6KIMKim (2)X  04:15-04:15-  2424.0 7318mWRNH 8, Gujarat
10.7KSBKosamba Junction (3)  04:21-04:21-  2431.8 7330mWRKosamba, Gujarat
10.8HATHathuran (2)  04:25-04:25-  2436.2 7332mWRKosamba, Gujarat
10.9PAOPanoli (3)  04:28-04:28-  2440.0 7329mWRPanoli, Gujarat
10.10SNJLSanjali (2)  04:31-04:31-  2444.3 7323mWRSanjali, Gujarat
10.11AKVAnkleshwar Junction (4)X  04:36-04:36-  2450.4 7319mWRAnkleshwar, Gujarat
11BHBharuch Junction (5)  04:44+104:46+22m32459.77219mWRBharuch, Gujarat
11.1CVJChavaj (2)X  04:50-04:50-  2464.7 7220mWRBharuch, Gujarat
11.2NIUNabipur (3)X  04:56-04:56-  2471.8 7224mWRNabipur, Gujarat
11.3VREVarediya (4)X  05:02-05:02-  2478.5 7221mWRNH 8, Gujarat
11.4PLJPalej (4)  05:07-05:07-  2485.1 7229mWRPalej, Gujarat
11.5LKDLakodara (4)  05:13-05:13-  2492.4 7226mWRNH 8, Gujarat
11.6MYGLMiyagam Karjan Junction NG  05:20-05:20-  2500.3 720mWRKarjan, Gujarat
11.7MYGMiyagam Karjan (2)X  05:20-05:20-  2500.4 7229mWRKarjan, Gujarat
11.8KSPRKashipura Sarar (2)  05:27-05:27-  2508.2 7226mWRGIDC Industrial Area, Gujarat
11.9ITAItola (4)  05:30-05:30-  2512.0 7227mWRNational Highway 8 Vadodara, Gujarat
11.10VRMVarnama (2)  05:33-05:33-  2515.9 7228mWRVadodara, Gujarat
11.11MPRMakarpura (4)  05:38-05:38-  2521.5 7230mWRVadodara, Gujarat
11.12VSVishvamitri (4)X  05:43-05:43-  2527.2 7230mWRVadodara, Gujarat
12BRCVadodara Junction (7)  05:45+605:50+55m22530.26036mWRVadodara 390005, Gujarat
12.1BRGYVadodara D CabinO  05:51-05:51-  2530.8 6036mWRVadodara, Gujarat
12.2BJWBajva (3)  05:57-05:57-  2537.5 6038mWRVadodara, Gujarat
12.3KRCAKarachiya Yard  05:59-05:59-  2539.4 6039mWRVadodara, Gujarat
12.4RNORanoli (2)  06:01-06:01-  2541.2 6039mWRVadodara District, Gujarat
12.5NDRNandesari (2)X  06:05-06:05-  2545.4 6042mWRNandesari, Gujarat
12.6VDAVasad Junction (3)X  06:10-06:10-  2550.4 6040mWRVasad, Gujarat
12.7ADDAdas Road (4)  06:15-06:15-  2555.0 6042mWRNational Highway 8, Gujarat
12.8VXDVadod (3)X  06:19-06:19-  2559.1 6044mWRAnand District, Gujarat
13ANNDAnand Junction (6)X  06:26+006:28+02m22566.06244mWRAnand, Gujarat
13.1KBRVKanjari Boriyavi Junction (4)  06:35-06:35-  2573.4 6239mWRKanjari, Gujarat
13.2UTDUtarsanda (4)X  06:41-06:41-  2579.0 6240mWRUttarsanda, Gujarat
14NDNadiad Junction (4)X  06:46+006:48+02m--2584.56437mWRNadiad, Gujarat
14.1GTEGothaj (2)  06:57-06:57-  2593.7 6432mWRState Highway 3, Gujarat
14.2MHDMahemdavad Kheda Road (4)X  07:05-07:05-  2602.0 6437mWRMahemdavad, Gujarat
14.3NEPNenpur (2)  07:08-07:08-  2606.2 6435mWRState Highway 3, Gujarat
14.4KANJKanij (3)X  07:11-07:11-  2609.0 6439mWRBareja-Barejadi Rd, Gujarat
14.5BJDBarejadi Nandej (3)O  07:15-07:15-  2613.4 6442mWRBareja-Barejadi Rd, Gujarat
14.6GERGeratpur (2)X  07:18-07:18-  2616.8 6444mWRAhmadabad, Gujarat
14.7VTAVatva (4)X  07:23-07:23-  2622.0 6449mWRDist. Ahmedabad 382445, Gujarat
15MANManinagar (2)  07:28-07:30-2m12626.81350mWRAhmadabad, Gujarat
15.1KKFKankaria  07:36-07:36-  2628.2 1348mWRAhmedabad, Gujarat
16ADIAhmedabad Junction (12)X07:45+408:05+420m72630.05551mWRAhmedabad, Gujarat
16.1SBTASabarmati A Cabin  08:08-08:08-  2633.1 5556mWRSabarmati A Cabin, Gujarat
16.2SBTSabarmati Junction (3)  08:11-08:11-  2635.5 5552mWRAhmedabad, Gujarat
16.3SBISabarmati Junction (3)  08:11-08:11-  2635.5 5555mWRAhmadabad, Gujarat
16.4SBTFSabarmati F Cabin  08:12-08:12-  2636.4 5555mWRAhmedabad, Gujarat
16.5CLDYChandlodiya  08:17-08:17-  2641.2 5559mWRAhmedabad, Gujarat
16.6ABDAmbli Road  08:23-08:23-  2646.8 5550mWRAhmedabad, Gujarat
16.7GGMGora GhumaX  08:29-08:29-  2652.1 5545mWRParthna Upvan Rd, Gujarat
16.8SAUSanand  08:36-08:36-  2658.4 5540mWRSanand, Gujarat
16.9WSEVasan Iyawa  08:41-08:41-  2663.5 5536mWRState Highway 17, Gujarat
16.10CEChharodiX  08:47-08:47-  2669.1 5529mWRSH 17, Gujarat
16.11VCNVirochannagar  08:54-08:54-  2675.4 5533mWRState Highway 17, Gujarat
16.12JKAJakhvada  09:03-09:03-  2683.1 5531mWRState Highway 17, Gujarat
16.13XSKSokaliX  09:09-09:09-  2689.2 5527mWRSokali, Gujarat
17VGViramgam Junction (5)  09:16+609:18+62m--2695.47129mWRViramgam, Gujarat
17.1JNJhund  09:29-09:29-  2708.3 7123mWRState Highway 7, Gujarat
17.2SADLSadla  09:36-09:36-  2716.3 7115mWRSadla, Gujarat
17.3BAJNBajana  09:43-09:43-  2725.0 7112mWRState Highway 19, Gujarat
17.4JTXJatpipli  09:49-09:49-  2732.2 7125mWRDhg - Malwan, Gujarat
17.5VSVVasadva  09:59-09:59-  2743.5 7121mWRDhg - Malwan, Gujarat
18DHGDhrangadhra Junction (3)  10:13+4110:15+412m--2760.15954mWRDhrangadhra, Gujarat
18.1CULChuli  10:30-10:30-  2774.7 5951mWRSaladi Railway Station, Gujarat
18.2SUKSukhpur  10:39-10:39-  2783.5 5939mWRsukhpur, Gujarat
18.3HVDHalvad  10:47-10:47-  2791.0 5946mWRHalvad, Gujarat
18.4DHNLDhanalaX  10:57-10:57-  2801.1 5938mWRState Highway 7, Gujarat
18.5DVYDevaliya  11:05-11:05-  2808.8 5934mWRState Highway 7, Gujarat
18.6KHXBKhakhrechi Bg  11:16-11:16-  2819.4 5916mWRState Highway 321, Gujarat
18.7WDHRWadharva  11:24-11:24-  2827.7 5910mWRWadharva, Gujarat
18.8MALBMaliya Miyana Junction (2)  11:34-11:34-  2837.0 596mWRMalia, Gujarat
18.9SRBRSurbari  11:50-11:50-  2853.0 596mWRNational Highway 27, Gujarat
18.10KATRKatariya  12:03-12:03-  2865.4 5943mWRNational Highway 27, Gujarat
19SIOBSamakhiali Junction (3)  12:14+912:16+92m12876.25642mWRSamakhiali, Gujarat
19.1VONBVondh (1)  12:27-12:27-  2886.9 5624mWRVondh, Gujarat
20BCOBBhachau (3)  12:33+2412:35+242m12892.15044mWRBhachau, Gujarat
20.1CHIBChirai (3)  12:51-12:51-  2905.3 5012mWRChirai Moti, Gujarat
20.2BMSBBhimasar (3)  13:03-13:03-  2916.0 5026mWRSH 50, Gujarat
20.3GIMCGandhidham Cabin  13:17-13:17-  2927.0 5013mWRKandla Port Rd, Gujarat
21GIMBGandhidham Junction (3)X13:20+813:45+1025m12930.02312mWRGandhidham, Gujarat
21.1GPPRGopalpur  14:01-14:01-  2935.9 2327mWRGandhidham, Gujarat
22AIAdipur Junction (2)X  14:08+1614:10+172m--2938.82036mWRDist. Kachchh, Gujarat
23AJEAnjar (1)  14:32+314:34+32m12946.15653mWRAnjar, Gujarat
23.1RUTRatnal (1)  14:52-14:52-  2963.1 56120mWRSH 46, Gujarat
23.2KEMAKukma (1)  15:07-15:07-  2976.6 56128mWRKutch, Gujarat
23.3MADPMadhapur Road  15:11-15:11-  2980.5 56107mWRSH 42, Gujarat
24BHUJ•Bhuj (3)•  15:20+0-12989.1-89mWRBhuj - 370201, Gujarat
Scroll to Top
Scroll to Bottom